Terminal Aerodrome Forecast
Issued by NWS

Home | Current Version | Previous Version | Text Only | Print | Product List | Glossary On
Versions: 1 2 3 4 5 6 7 8 9 10 11 12 13 14 15 16 17 18 19 20 21 22 23 24
312
FTUS46 KLOX 240858 AAB
TAFPRB
TAF AMD
KPRB 240858Z 2409/2506 23006KT P6SM BKN015 OVC100
     FM241600 VRB06KT P6SM BKN035 BKN050
     FM242100 21018G26KT P6SM BKN050
     FM250300 28015KT P6SM BKN050=

USA.gov is the U.S. government's official web portal to all federal, state and local government web resources and services.